createdAt,value
2017-03-16T00:00:21.802Z,20.16
2017-03-16T00:01:02.438Z,20.13
2017-03-16T00:01:43.099Z,20.15
2017-03-16T00:02:23.730Z,20.15
2017-03-16T00:03:04.396Z,20.18
2017-03-16T00:03:45.074Z,20.09
2017-03-16T00:04:25.783Z,20.18
2017-03-16T00:05:06.350Z,20.12
2017-03-16T00:05:46.981Z,20.16
2017-03-16T00:06:27.626Z,20.2
2017-03-16T00:07:08.270Z,20.15
2017-03-16T00:07:49.006Z,20.18
2017-03-16T00:08:29.643Z,20.09
2017-03-16T00:09:10.273Z,20.2
2017-03-16T00:09:50.908Z,20.18
2017-03-16T00:10:31.547Z,20.12
2017-03-16T00:11:12.176Z,20.15
2017-03-16T00:11:52.892Z,20.18
2017-03-16T00:12:33.602Z,20.12
2017-03-16T00:13:14.191Z,20.13
2017-03-16T00:13:54.837Z,20.18
2017-03-16T00:14:35.466Z,20.15
2017-03-16T00:15:16.093Z,20.24
2017-03-16T00:15:56.724Z,20.13
2017-03-16T00:16:37.357Z,20.1
2017-03-16T00:17:18.044Z,20.13
2017-03-16T00:17:58.680Z,20.1
2017-03-16T00:18:39.312Z,20.12
2017-03-16T00:19:19.938Z,20.13
2017-03-16T00:20:00.582Z,20.05
2017-03-16T00:20:41.209Z,20.13
2017-03-16T00:21:21.866Z,20.09
2017-03-16T00:22:02.500Z,20.12
2017-03-16T00:22:43.138Z,20.08
2017-03-16T00:23:23.768Z,20.13
2017-03-16T00:24:04.487Z,20.15
2017-03-16T00:24:45.114Z,20.1
2017-03-16T00:25:25.774Z,20.15
2017-03-16T00:26:06.419Z,20.2
2017-03-16T00:26:47.066Z,20.15
2017-03-16T00:27:27.700Z,20.13
2017-03-16T00:28:08.326Z,20.15
2017-03-16T00:28:48.970Z,20.08
2017-03-16T00:29:29.602Z,20.1
2017-03-16T00:30:10.261Z,20.2
2017-03-16T00:30:50.886Z,20.12
2017-03-16T00:31:31.537Z,20.16
2017-03-16T00:32:13.008Z,20.05
2017-03-16T00:32:53.641Z,20.18
2017-03-16T00:33:34.332Z,20.1
2017-03-16T00:34:14.970Z,20.12
2017-03-16T00:34:55.614Z,20.08
2017-03-16T00:35:36.339Z,20.08
2017-03-16T00:36:16.982Z,20.08
2017-03-16T00:36:57.622Z,20.1
2017-03-16T00:37:38.259Z,20.06
2017-03-16T00:38:18.913Z,20.05
2017-03-16T00:38:59.539Z,20.1
2017-03-16T00:39:40.258Z,20.05
2017-03-16T00:40:20.888Z,20
2017-03-16T00:41:01.514Z,20.03
2017-03-16T00:41:42.144Z,20.06
2017-03-16T00:42:22.783Z,20.08
2017-03-16T00:43:03.411Z,20.03
2017-03-16T00:43:44.050Z,20.13
2017-03-16T00:44:24.680Z,20.09
2017-03-16T00:45:05.314Z,20.03
2017-03-16T00:45:45.934Z,20.13
2017-03-16T00:46:26.632Z,20.2
2017-03-16T00:47:07.215Z,20.05
2017-03-16T00:47:47.870Z,20.12
2017-03-16T00:48:28.508Z,20.08
2017-03-16T00:49:09.176Z,20.08
2017-03-16T00:49:49.809Z,20.13
2017-03-16T00:50:30.441Z,20.02
2017-03-16T00:51:11.065Z,20.05
2017-03-16T00:51:51.768Z,20.08
2017-03-16T00:52:32.394Z,20.12
2017-03-16T00:53:13.051Z,20.09
2017-03-16T00:53:53.688Z,20.12
2017-03-16T00:54:34.313Z,20
2017-03-16T00:55:14.953Z,20.09
2017-03-16T00:55:55.627Z,20.12
2017-03-16T00:56:36.259Z,20.12
2017-03-16T00:57:16.888Z,20.06
2017-03-16T00:57:57.597Z,20.13
2017-03-16T00:58:38.233Z,20.13
2017-03-16T00:59:18.872Z,20.08
2017-03-16T00:59:59.516Z,20.03
2017-03-16T01:00:40.148Z,20.1
2017-03-16T01:01:20.784Z,20
2017-03-16T01:02:01.432Z,20.02
2017-03-16T01:02:42.065Z,20.03
2017-03-16T01:03:22.745Z,20.08
2017-03-16T01:04:03.372Z,20.09
2017-03-16T01:04:44.001Z,20.1
2017-03-16T01:05:24.632Z,20.03
2017-03-16T01:06:05.253Z,20.05
2017-03-16T01:06:45.881Z,20.09
2017-03-16T01:07:26.662Z,19.97
2017-03-16T01:08:07.294Z,20.08
2017-03-16T01:08:47.921Z,20.06
2017-03-16T01:09:28.558Z,20.08
2017-03-16T01:10:09.245Z,20.09
2017-03-16T01:10:49.879Z,20.02
2017-03-16T01:11:30.507Z,20.08
2017-03-16T01:12:11.135Z,20.03
2017-03-16T01:12:51.746Z,20.06
2017-03-16T01:13:32.382Z,20.1
2017-03-16T01:14:13.036Z,20.05
2017-03-16T01:14:53.669Z,20.05
2017-03-16T01:15:34.302Z,20.05
2017-03-16T01:16:14.929Z,20.1
2017-03-16T01:16:55.558Z,20.09
2017-03-16T01:17:36.192Z,20.12
2017-03-16T01:18:16.959Z,20.12
2017-03-16T01:18:57.588Z,20.06
2017-03-16T01:19:38.292Z,20.06
2017-03-16T01:20:18.921Z,20.02
2017-03-16T01:20:59.559Z,20.03
2017-03-16T01:21:40.183Z,20.03
2017-03-16T01:22:20.906Z,20.03
2017-03-16T01:23:01.538Z,20.06
2017-03-16T01:23:42.173Z,20.05
2017-03-16T01:24:22.800Z,20.08
2017-03-16T01:25:03.425Z,20.05
2017-03-16T01:25:44.051Z,20.08
2017-03-16T01:26:24.684Z,20.05
2017-03-16T01:27:05.314Z,20.12
2017-03-16T01:27:45.984Z,20.1
2017-03-16T01:28:26.615Z,20.05
2017-03-16T01:29:07.248Z,20.08
2017-03-16T01:29:47.877Z,20.13
2017-03-16T01:30:28.517Z,20.15
2017-03-16T01:31:09.152Z,20.12
2017-03-16T01:31:49.805Z,20.03
2017-03-16T01:32:30.438Z,20.1
2017-03-16T01:33:11.070Z,20.05
2017-03-16T01:33:51.692Z,20.12
2017-03-16T01:34:32.331Z,20.09
2017-03-16T01:35:12.961Z,20.06
2017-03-16T01:35:53.647Z,20.03
2017-03-16T01:36:34.274Z,20.02
2017-03-16T01:37:14.928Z,20.08
2017-03-16T01:37:55.554Z,20.03
2017-03-16T01:38:36.206Z,20.1
2017-03-16T01:39:16.836Z,20.02
2017-03-16T01:39:57.469Z,20.1
2017-03-16T01:40:38.142Z,20.12
2017-03-16T01:41:18.769Z,20.06
2017-03-16T01:41:59.399Z,20.15
2017-03-16T01:42:40.048Z,20.06
2017-03-16T01:43:20.679Z,20.13
2017-03-16T01:44:01.355Z,20.03
2017-03-16T01:44:41.996Z,20.1
2017-03-16T01:45:22.619Z,20.1
2017-03-16T01:46:03.243Z,20
2017-03-16T01:46:43.879Z,19.98
2017-03-16T01:47:24.517Z,20.03
2017-03-16T01:48:05.170Z,20.12
2017-03-16T01:48:45.856Z,20.02
2017-03-16T01:49:26.476Z,20.08
2017-03-16T01:50:07.100Z,20.06
2017-03-16T01:50:47.730Z,20.12
2017-03-16T01:51:28.355Z,20.12
2017-03-16T01:52:08.989Z,20.02
2017-03-16T01:52:49.616Z,20.02
2017-03-16T01:53:30.240Z,20.05
2017-03-16T01:54:10.941Z,19.98
2017-03-16T01:54:51.568Z,20.09
2017-03-16T01:55:32.203Z,20.08
2017-03-16T01:56:12.831Z,20.02
2017-03-16T01:56:53.468Z,20.09
2017-03-16T01:57:34.100Z,20.08
2017-03-16T01:58:14.725Z,20.02
2017-03-16T01:58:55.369Z,20.05
2017-03-16T01:59:35.997Z,20.05
2017-03-16T02:00:16.623Z,20.09
2017-03-16T02:00:57.250Z,20.08
2017-03-16T02:01:37.922Z,20.1
2017-03-16T02:02:18.543Z,20.12
2017-03-16T02:02:59.181Z,20.09
2017-03-16T02:03:39.812Z,20.03
2017-03-16T02:04:20.441Z,20.08
2017-03-16T02:05:01.091Z,20.1
2017-03-16T02:05:41.724Z,20.1
2017-03-16T02:06:22.404Z,20.09
2017-03-16T02:07:03.057Z,20.08
2017-03-16T02:07:43.690Z,20.12
2017-03-16T02:08:24.377Z,20.05
2017-03-16T02:09:05.004Z,20.09
2017-03-16T02:09:45.673Z,20.05
2017-03-16T02:10:26.300Z,20.05
2017-03-16T02:11:06.928Z,20.05
2017-03-16T02:11:47.574Z,20.02
2017-03-16T02:12:28.200Z,20.02
2017-03-16T02:13:08.827Z,20.08
2017-03-16T02:13:49.471Z,20.05
2017-03-16T02:14:30.119Z,20.08
2017-03-16T02:15:10.771Z,20.09
2017-03-16T02:15:51.395Z,20.09
2017-03-16T02:16:32.079Z,20.05
2017-03-16T02:17:12.653Z,20.08
2017-03-16T02:17:53.294Z,20.05
2017-03-16T02:18:33.942Z,20.12
2017-03-16T02:19:14.617Z,20.08
2017-03-16T02:22:59.963Z,20.03
2017-03-16T02:23:40.575Z,20.05
2017-03-16T02:24:21.197Z,20.08
2017-03-16T02:25:01.824Z,20.05
2017-03-16T02:25:42.446Z,20.06
2017-03-16T02:26:23.150Z,19.93
2017-03-16T02:27:03.773Z,20.03
2017-03-16T02:27:44.387Z,19.94
2017-03-16T02:28:25.001Z,20.03
2017-03-16T02:29:05.610Z,20.08
2017-03-16T02:29:46.260Z,20.09
2017-03-16T02:30:26.950Z,20.08
2017-03-16T02:31:07.567Z,20.05
2017-03-16T02:31:48.180Z,19.95
2017-03-16T02:32:28.955Z,20.06
2017-03-16T02:33:09.655Z,19.98
2017-03-16T02:33:50.309Z,19.91
2017-03-16T02:34:30.978Z,20
2017-03-16T02:35:11.619Z,19.97
2017-03-16T02:35:52.249Z,20
2017-03-16T02:36:32.991Z,20.06
2017-03-16T02:37:13.715Z,20.08
2017-03-16T02:37:54.345Z,20.02
2017-03-16T02:38:34.966Z,19.95
2017-03-16T02:39:30.181Z,20
2017-03-16T02:40:10.825Z,20.09
2017-03-16T02:40:51.458Z,20.02
2017-03-16T02:41:32.092Z,20.05
2017-03-16T02:42:12.754Z,20
2017-03-16T02:42:53.423Z,19.98
2017-03-16T02:43:34.062Z,20.06
2017-03-16T02:44:14.697Z,20.03
2017-03-16T02:44:55.375Z,19.95
2017-03-16T02:45:35.996Z,20.03
2017-03-16T02:46:16.626Z,19.97
2017-03-16T02:46:57.283Z,19.91
2017-03-16T02:47:37.935Z,20.06
2017-03-16T02:48:18.574Z,20
2017-03-16T02:48:59.220Z,20.09
2017-03-16T02:49:39.849Z,20.03
2017-03-16T02:50:20.504Z,20.08
2017-03-16T02:51:01.153Z,20.02
2017-03-16T02:51:41.781Z,19.94
2017-03-16T02:52:22.456Z,19.97
2017-03-16T02:53:03.182Z,19.97
2017-03-16T02:53:43.807Z,20.02
2017-03-16T02:54:24.425Z,20.03
2017-03-16T02:55:05.049Z,19.94
2017-03-16T02:55:45.693Z,20
2017-03-16T02:56:26.369Z,19.97
2017-03-16T02:57:07.010Z,20
2017-03-16T02:57:47.627Z,20.06
2017-03-16T02:58:28.269Z,20.05
2017-03-16T02:59:08.970Z,20.03
2017-03-16T02:59:49.598Z,20.06
2017-03-16T03:00:30.221Z,20.06
2017-03-16T03:01:10.844Z,20
2017-03-16T03:01:51.475Z,20.05
2017-03-16T03:02:32.102Z,20
2017-03-16T03:03:12.733Z,20.03
2017-03-16T03:03:53.359Z,19.94
2017-03-16T03:04:33.996Z,20.09
2017-03-16T03:05:14.628Z,20.03
2017-03-16T03:05:55.264Z,20.05
2017-03-16T03:06:35.899Z,19.94
2017-03-16T03:07:16.524Z,19.93
2017-03-16T03:07:57.160Z,20.05
2017-03-16T03:08:37.788Z,19.97
2017-03-16T03:09:18.427Z,20.02
2017-03-16T03:09:59.073Z,20.03
2017-03-16T03:10:39.712Z,20.02
2017-03-16T03:11:20.343Z,20.02
2017-03-16T03:12:00.976Z,19.93
2017-03-16T03:12:41.633Z,20.02
2017-03-16T03:13:22.268Z,19.95
2017-03-16T03:14:02.889Z,19.98
2017-03-16T03:14:43.576Z,19.91
2017-03-16T03:15:24.203Z,19.91
2017-03-16T03:16:04.843Z,19.9
2017-03-16T03:16:45.473Z,19.97
2017-03-16T03:17:26.101Z,20.02
2017-03-16T03:18:06.734Z,19.94
2017-03-16T03:18:47.395Z,20.03
2017-03-16T03:19:28.020Z,20
2017-03-16T03:20:08.654Z,20.03
2017-03-16T03:20:49.277Z,19.97
2017-03-16T03:21:29.900Z,19.97
2017-03-16T03:22:10.547Z,19.93
2017-03-16T03:22:51.204Z,20
2017-03-16T03:23:31.861Z,19.93
2017-03-16T03:24:12.487Z,19.91
2017-03-16T03:24:53.134Z,19.93
2017-03-16T03:25:33.772Z,19.93
2017-03-16T03:26:14.427Z,20.03
2017-03-16T03:26:55.056Z,19.93
2017-03-16T03:27:35.700Z,19.91
2017-03-16T03:28:16.353Z,19.91
2017-03-16T03:28:56.992Z,19.93
2017-03-16T03:29:37.617Z,20
2017-03-16T03:30:18.249Z,19.95
2017-03-16T03:30:58.919Z,19.93
2017-03-16T03:31:39.551Z,19.95
2017-03-16T03:32:20.184Z,19.97
2017-03-16T03:33:00.815Z,19.95
2017-03-16T03:33:41.507Z,19.97
2017-03-16T03:34:22.135Z,19.93
2017-03-16T03:35:02.770Z,19.95
2017-03-16T03:35:43.400Z,20
2017-03-16T03:36:24.104Z,19.93
2017-03-16T03:37:04.731Z,19.94
2017-03-16T03:37:45.364Z,19.93
2017-03-16T03:38:25.983Z,19.93
2017-03-16T03:39:06.610Z,19.95
2017-03-16T03:39:47.231Z,19.93
2017-03-16T03:40:27.911Z,19.95
2017-03-16T03:41:08.544Z,20.02
2017-03-16T03:41:49.168Z,19.95
2017-03-16T03:42:29.852Z,20
2017-03-16T03:43:10.490Z,19.93
2017-03-16T03:43:51.205Z,20
2017-03-16T03:44:31.826Z,19.93
2017-03-16T03:45:12.449Z,19.98
2017-03-16T03:45:53.165Z,19.88
2017-03-16T03:46:33.793Z,19.88
2017-03-16T03:47:14.419Z,19.94
2017-03-16T03:47:55.052Z,19.93
2017-03-16T03:48:35.684Z,19.84
2017-03-16T03:49:16.322Z,19.78
2017-03-16T03:49:57.049Z,19.88
2017-03-16T03:50:37.686Z,19.95
2017-03-16T03:51:18.332Z,19.95
2017-03-16T03:51:58.967Z,19.97
2017-03-16T03:52:39.599Z,19.93
2017-03-16T03:53:20.221Z,19.8
2017-03-16T03:54:00.892Z,19.91
2017-03-16T03:54:41.587Z,19.98
2017-03-16T03:55:22.210Z,19.87
2017-03-16T03:56:02.845Z,19.9
2017-03-16T03:56:43.559Z,19.91
2017-03-16T03:57:24.237Z,19.87
2017-03-16T03:58:04.847Z,19.86
2017-03-16T03:58:45.477Z,19.83
2017-03-16T03:59:26.163Z,19.95
2017-03-16T04:00:06.745Z,19.93
2017-03-16T04:00:47.374Z,19.83
2017-03-16T04:01:28.007Z,19.84
2017-03-16T04:02:08.699Z,19.76
2017-03-16T04:02:49.411Z,19.79
2017-03-16T04:03:30.032Z,19.83
2017-03-16T04:04:10.692Z,19.86
2017-03-16T04:04:51.312Z,19.94
2017-03-16T04:05:31.935Z,19.93
2017-03-16T04:06:12.557Z,19.84
2017-03-16T04:06:53.261Z,19.87
2017-03-16T04:07:33.954Z,19.79
2017-03-16T04:08:14.529Z,19.84
2017-03-16T04:08:55.163Z,19.86
2017-03-16T04:09:35.786Z,19.8
2017-03-16T04:10:16.429Z,19.9
2017-03-16T04:10:57.109Z,19.9
2017-03-16T04:11:37.742Z,19.8
2017-03-16T04:12:18.382Z,19.79
2017-03-16T04:12:59.007Z,19.86
2017-03-16T04:13:39.639Z,19.8
2017-03-16T04:14:20.278Z,19.83
2017-03-16T04:15:00.904Z,19.8
2017-03-16T04:15:41.535Z,19.75
2017-03-16T04:16:22.157Z,19.8
2017-03-16T04:17:02.832Z,19.84
2017-03-16T04:17:43.460Z,19.86
2017-03-16T04:18:24.121Z,19.79
2017-03-16T04:19:04.747Z,19.88
2017-03-16T04:19:45.374Z,19.86
2017-03-16T04:20:26.013Z,19.78
2017-03-16T04:21:06.697Z,19.79
2017-03-16T04:21:47.330Z,19.79
2017-03-16T04:22:27.959Z,19.8
2017-03-16T04:23:08.583Z,19.79
2017-03-16T04:23:49.214Z,19.86
2017-03-16T04:24:29.851Z,19.8
2017-03-16T04:25:10.481Z,19.8
2017-03-16T04:25:51.110Z,19.8
2017-03-16T04:26:31.786Z,19.83
2017-03-16T04:27:12.427Z,19.79
2017-03-16T04:27:53.050Z,19.86
2017-03-16T04:28:33.701Z,19.78
2017-03-16T04:29:14.410Z,19.79
2017-03-16T04:29:55.043Z,19.79
2017-03-16T04:30:35.743Z,19.8
2017-03-16T04:31:16.373Z,19.83
2017-03-16T04:31:57.007Z,19.84
2017-03-16T04:32:37.636Z,19.87
2017-03-16T04:33:18.294Z,19.8
2017-03-16T04:33:58.919Z,19.79
2017-03-16T04:34:39.623Z,19.8
2017-03-16T04:35:20.248Z,19.84
2017-03-16T04:36:00.878Z,19.86
2017-03-16T04:36:41.517Z,19.79
2017-03-16T04:37:22.137Z,19.79
2017-03-16T04:38:02.752Z,19.75
2017-03-16T04:38:43.481Z,19.83
2017-03-16T04:39:24.101Z,19.76
2017-03-16T04:40:04.716Z,19.79
2017-03-16T04:40:45.375Z,19.86
2017-03-16T04:41:25.994Z,19.78
2017-03-16T04:42:06.601Z,19.79
2017-03-16T04:42:47.258Z,19.79
2017-03-16T04:43:27.993Z,19.72
2017-03-16T04:44:08.634Z,19.72
2017-03-16T04:44:49.259Z,19.72
2017-03-16T04:46:36.739Z,19.75
2017-03-16T04:47:17.384Z,19.83
2017-03-16T04:47:58.102Z,19.75
2017-03-16T04:48:38.765Z,19.78
2017-03-16T04:49:19.446Z,19.72
2017-03-16T04:50:00.115Z,19.7
2017-03-16T04:50:40.817Z,19.76
2017-03-16T04:51:21.446Z,19.73
2017-03-16T04:52:02.102Z,19.79
2017-03-16T04:52:42.775Z,19.76
2017-03-16T04:53:23.406Z,19.76
2017-03-16T04:54:04.027Z,19.76
2017-03-16T04:54:44.684Z,19.78
2017-03-16T04:55:25.322Z,19.83
2017-03-16T04:56:05.951Z,19.8
2017-03-16T04:56:46.582Z,19.78
2017-03-16T04:57:27.225Z,19.72
2017-03-16T04:58:07.849Z,19.72
2017-03-16T04:58:48.472Z,19.78
2017-03-16T04:59:29.095Z,19.79
2017-03-16T05:00:09.734Z,19.72
2017-03-16T05:00:50.387Z,19.75
2017-03-16T05:01:31.008Z,19.76
2017-03-16T05:02:11.734Z,19.75
2017-03-16T05:02:52.422Z,19.75
2017-03-16T05:03:33.070Z,19.75
2017-03-16T05:04:13.699Z,19.78
2017-03-16T05:06:06.337Z,19.75
2017-03-16T05:06:46.960Z,19.7
2017-03-16T05:07:27.587Z,19.72
2017-03-16T05:08:08.302Z,19.76
2017-03-16T05:08:48.959Z,19.72
2017-03-16T05:09:29.584Z,19.72
2017-03-16T05:10:10.244Z,19.76
2017-03-16T05:10:50.865Z,19.72
2017-03-16T05:11:31.559Z,19.72
2017-03-16T05:13:20.099Z,19.79
2017-03-16T05:14:00.711Z,19.79
2017-03-16T05:14:41.343Z,19.78
2017-03-16T05:15:21.980Z,19.8
2017-03-16T05:16:02.604Z,19.78
2017-03-16T05:16:43.240Z,19.68
2017-03-16T05:17:23.901Z,19.7
2017-03-16T05:18:04.529Z,19.79
2017-03-16T05:18:45.185Z,19.69
2017-03-16T05:19:25.813Z,19.7
2017-03-16T05:20:06.444Z,19.76
2017-03-16T05:20:47.114Z,19.79
2017-03-16T05:21:27.752Z,19.72
2017-03-16T05:22:08.376Z,19.72
2017-03-16T05:22:49.002Z,19.75
2017-03-16T05:23:29.624Z,19.72
2017-03-16T05:24:10.338Z,19.75
2017-03-16T05:24:51.074Z,19.73
2017-03-16T05:25:31.777Z,19.72
2017-03-16T05:26:12.426Z,19.7
2017-03-16T05:26:53.087Z,19.7
2017-03-16T05:27:33.782Z,19.76
2017-03-16T05:28:14.409Z,19.7
2017-03-16T05:28:55.093Z,19.75
2017-03-16T05:29:35.768Z,19.72
2017-03-16T05:30:16.401Z,19.72
2017-03-16T05:30:57.048Z,19.7
2017-03-16T05:31:37.792Z,19.73
2017-03-16T05:32:18.423Z,19.7
2017-03-16T05:32:59.158Z,19.78
2017-03-16T05:33:39.788Z,19.73
2017-03-16T05:34:20.453Z,19.78
2017-03-16T05:35:01.055Z,19.73
2017-03-16T05:35:41.679Z,19.72
2017-03-16T05:36:22.325Z,19.75
2017-03-16T05:37:02.975Z,19.76
2017-03-16T05:37:43.612Z,19.69
2017-03-16T05:38:24.235Z,19.78
2017-03-16T05:39:04.940Z,19.73
2017-03-16T05:39:45.566Z,19.76
2017-03-16T05:40:26.191Z,19.79
2017-03-16T05:41:06.823Z,19.75
2017-03-16T05:41:47.495Z,19.68
2017-03-16T05:42:28.122Z,19.72
2017-03-16T05:43:08.834Z,19.75
2017-03-16T05:43:49.462Z,19.72
2017-03-16T05:44:30.096Z,19.73
2017-03-16T05:45:10.810Z,19.76
2017-03-16T05:45:51.485Z,19.73
2017-03-16T05:46:32.165Z,19.7
2017-03-16T05:47:12.813Z,19.75
2017-03-16T05:47:53.572Z,19.7
2017-03-16T05:48:34.196Z,19.7
2017-03-16T05:49:14.832Z,19.72
2017-03-16T05:49:55.490Z,19.7
2017-03-16T05:50:36.131Z,19.68
2017-03-16T05:51:16.760Z,19.66
2017-03-16T05:51:57.382Z,19.7
2017-03-16T05:52:38.008Z,19.63
2017-03-16T05:53:18.648Z,19.66
2017-03-16T05:53:59.288Z,19.72
2017-03-16T05:54:39.912Z,19.72
2017-03-16T05:55:20.561Z,19.7
2017-03-16T05:56:01.200Z,19.7
2017-03-16T05:56:41.825Z,19.72
2017-03-16T05:57:22.464Z,19.68
2017-03-16T05:58:03.141Z,19.7
2017-03-16T05:58:43.831Z,19.7
2017-03-16T05:59:24.484Z,19.73
2017-03-16T06:00:05.183Z,19.73
2017-03-16T06:00:45.969Z,19.7
2017-03-16T06:01:26.592Z,19.69
2017-03-16T06:02:07.293Z,19.72
2017-03-16T06:02:47.919Z,19.73
2017-03-16T06:03:28.545Z,19.7
2017-03-16T06:04:09.186Z,19.75
2017-03-16T06:04:49.849Z,19.68
2017-03-16T06:05:30.471Z,19.68
2017-03-16T06:06:11.115Z,19.66
2017-03-16T06:06:51.755Z,19.61
2017-03-16T06:07:32.378Z,19.68
2017-03-16T06:08:12.998Z,19.68
2017-03-16T06:08:53.745Z,19.73
2017-03-16T06:09:34.378Z,19.66
2017-03-16T06:10:15.096Z,19.66
2017-03-16T06:10:55.807Z,19.7
2017-03-16T06:11:36.492Z,19.66
2017-03-16T06:12:17.141Z,19.72
2017-03-16T06:12:57.842Z,19.69
2017-03-16T06:13:38.486Z,19.75
2017-03-16T06:14:19.110Z,19.68
2017-03-16T06:14:59.750Z,19.68
2017-03-16T06:15:40.377Z,19.72
2017-03-16T06:16:21.011Z,19.72
2017-03-16T06:17:01.648Z,19.69
2017-03-16T06:17:42.274Z,19.72
2017-03-16T06:18:22.911Z,19.7
2017-03-16T06:19:03.591Z,19.69
2017-03-16T06:19:44.299Z,19.76
2017-03-16T06:20:24.930Z,19.7
2017-03-16T06:21:05.630Z,19.68
2017-03-16T06:21:46.257Z,19.66
2017-03-16T06:22:26.882Z,19.66
2017-03-16T06:23:07.581Z,19.66
2017-03-16T06:23:48.287Z,19.7
2017-03-16T06:24:28.897Z,19.66
2017-03-16T06:25:09.537Z,19.68
2017-03-16T06:25:50.205Z,19.61
2017-03-16T06:26:30.853Z,19.68
2017-03-16T06:27:11.467Z,19.61
2017-03-16T06:27:52.096Z,19.61
2017-03-16T06:28:32.711Z,19.68
2017-03-16T06:29:13.326Z,19.7
2017-03-16T06:29:53.948Z,19.72
2017-03-16T06:30:34.558Z,19.75
2017-03-16T06:31:15.182Z,19.72
2017-03-16T06:31:55.859Z,19.7
2017-03-16T06:32:36.425Z,19.69
2017-03-16T06:33:17.057Z,19.68
2017-03-16T06:33:57.674Z,19.63
2017-03-16T06:34:38.284Z,19.72
2017-03-16T06:35:18.896Z,19.75
2017-03-16T06:35:59.518Z,19.73
2017-03-16T06:36:40.136Z,19.73
2017-03-16T06:37:20.751Z,19.69
2017-03-16T06:38:01.386Z,19.66
2017-03-16T06:38:41.997Z,19.73
2017-03-16T06:39:22.685Z,19.72
2017-03-16T06:40:03.313Z,19.65
2017-03-16T06:40:43.930Z,19.68
2017-03-16T06:41:24.562Z,19.73
2017-03-16T06:42:05.197Z,19.72
2017-03-16T06:42:45.841Z,19.73
2017-03-16T06:43:26.464Z,19.65
2017-03-16T06:44:07.089Z,19.72
2017-03-16T06:44:47.795Z,19.76
2017-03-16T06:45:28.431Z,19.7
2017-03-16T06:46:09.073Z,19.69
2017-03-16T06:46:49.712Z,19.68
2017-03-16T06:47:30.338Z,19.66
2017-03-16T06:48:10.989Z,19.68
2017-03-16T06:48:51.652Z,19.65
2017-03-16T06:49:32.281Z,19.73
2017-03-16T06:50:12.901Z,19.72
2017-03-16T06:50:53.590Z,19.68
2017-03-16T06:51:34.210Z,19.7
2017-03-16T06:52:14.887Z,19.68
2017-03-16T06:52:55.513Z,19.68
2017-03-16T06:53:36.151Z,19.61
2017-03-16T06:54:16.782Z,19.66
2017-03-16T06:54:57.409Z,19.63
2017-03-16T06:55:38.032Z,19.72
2017-03-16T06:56:18.820Z,19.72
2017-03-16T06:56:59.475Z,19.66
2017-03-16T06:57:40.099Z,19.66
2017-03-16T06:58:20.715Z,19.61
2017-03-16T06:59:01.343Z,19.68
2017-03-16T06:59:41.971Z,19.7
2017-03-16T07:00:22.594Z,19.69
2017-03-16T07:01:03.218Z,19.7
2017-03-16T07:01:43.868Z,19.69
2017-03-16T07:02:24.589Z,19.6
2017-03-16T07:03:06.192Z,19.7
2017-03-16T07:03:46.823Z,19.76
2017-03-16T07:04:27.467Z,19.65
2017-03-16T07:05:08.112Z,19.72
2017-03-16T07:05:48.736Z,19.65
2017-03-16T07:06:29.479Z,19.72
2017-03-16T07:07:10.150Z,19.7
2017-03-16T07:07:50.835Z,19.68
2017-03-16T07:08:31.442Z,19.68
2017-03-16T07:09:12.156Z,19.66
2017-03-16T07:09:52.787Z,19.69
2017-03-16T07:10:33.412Z,19.65
2017-03-16T07:11:14.051Z,19.65
2017-03-16T07:11:54.683Z,19.61
2017-03-16T07:12:35.313Z,19.69
2017-03-16T07:13:15.947Z,19.6
2017-03-16T07:13:56.579Z,19.69
2017-03-16T07:14:37.230Z,19.58
2017-03-16T07:15:17.872Z,19.61
2017-03-16T07:15:58.495Z,19.61
2017-03-16T07:16:39.117Z,19.68
2017-03-16T07:17:19.782Z,19.69
2017-03-16T07:18:00.412Z,19.66
2017-03-16T07:18:41.042Z,19.65
2017-03-16T07:19:21.711Z,19.66
2017-03-16T07:20:02.338Z,19.68
2017-03-16T07:20:42.973Z,19.65
2017-03-16T07:21:23.610Z,19.68
2017-03-16T07:22:04.240Z,19.69
2017-03-16T07:22:44.869Z,19.66
2017-03-16T07:23:25.502Z,19.76
2017-03-16T07:24:06.132Z,19.69
2017-03-16T07:24:46.759Z,19.68
2017-03-16T07:25:27.399Z,19.65
2017-03-16T07:26:08.029Z,19.72
2017-03-16T07:26:48.661Z,19.73
2017-03-16T07:27:29.308Z,19.68
2017-03-16T07:28:09.944Z,19.63
2017-03-16T07:28:50.577Z,19.61
2017-03-16T07:29:31.213Z,19.61
2017-03-16T07:30:11.841Z,19.65
2017-03-16T07:30:52.502Z,19.61
2017-03-16T07:31:33.258Z,19.57
2017-03-16T07:32:13.898Z,19.57
2017-03-16T07:32:54.521Z,19.61
2017-03-16T07:33:35.151Z,19.61
2017-03-16T07:34:15.790Z,19.61
2017-03-16T07:34:56.447Z,19.66
2017-03-16T07:35:37.162Z,19.6
2017-03-16T07:36:17.789Z,19.55
2017-03-16T07:36:58.417Z,19.65
2017-03-16T07:37:39.058Z,19.69
2017-03-16T07:38:19.699Z,19.61
2017-03-16T07:39:00.419Z,19.61
2017-03-16T07:39:41.052Z,19.68
2017-03-16T07:40:21.683Z,19.61
2017-03-16T07:41:02.314Z,19.57
2017-03-16T07:41:42.945Z,19.54
2017-03-16T07:42:23.574Z,19.6
2017-03-16T07:43:04.269Z,19.61
2017-03-16T07:43:44.948Z,19.65
2017-03-16T07:44:25.575Z,19.58
2017-03-16T07:45:06.205Z,19.54
2017-03-16T07:45:46.843Z,19.58
2017-03-16T07:46:27.465Z,19.61
2017-03-16T07:47:08.107Z,19.58
2017-03-16T07:47:48.752Z,19.58
2017-03-16T07:48:29.395Z,19.65
2017-03-16T07:49:10.055Z,19.68
2017-03-16T07:49:50.685Z,19.65
2017-03-16T07:50:31.305Z,19.66
2017-03-16T07:51:11.933Z,19.65
2017-03-16T07:51:52.653Z,19.61
2017-03-16T07:52:33.297Z,19.58
2017-03-16T07:53:13.929Z,19.58
2017-03-16T07:53:54.555Z,19.61
2017-03-16T07:54:35.179Z,19.61
2017-03-16T07:55:15.813Z,19.58
2017-03-16T07:55:56.461Z,19.55
2017-03-16T07:56:37.155Z,19.61
2017-03-16T07:57:17.862Z,19.65
2017-03-16T07:57:58.497Z,19.68
2017-03-16T07:58:39.124Z,19.7
2017-03-16T07:59:19.777Z,19.68
2017-03-16T08:00:00.418Z,19.68
2017-03-16T08:00:41.050Z,19.6
2017-03-16T08:01:21.713Z,19.63
2017-03-16T08:02:02.361Z,19.63
2017-03-16T08:02:42.990Z,19.66
2017-03-16T08:03:23.643Z,19.61
2017-03-16T08:04:04.287Z,19.61
2017-03-16T08:04:44.936Z,19.68
2017-03-16T08:05:25.660Z,19.55
2017-03-16T08:06:06.320Z,19.57
2017-03-16T08:06:46.952Z,19.61
2017-03-16T08:07:27.577Z,19.66
2017-03-16T08:08:08.206Z,19.55
2017-03-16T08:08:48.846Z,19.65
2017-03-16T08:09:29.560Z,19.61
2017-03-16T08:10:10.200Z,19.6
2017-03-16T08:10:50.828Z,19.68
2017-03-16T08:11:31.493Z,19.57
2017-03-16T08:12:12.120Z,19.61
2017-03-16T08:12:52.760Z,19.65
2017-03-16T08:13:33.481Z,19.68
2017-03-16T08:14:14.110Z,19.6
2017-03-16T08:14:54.736Z,19.58
2017-03-16T08:15:35.367Z,19.68
2017-03-16T08:16:16.064Z,19.65
2017-03-16T08:16:56.689Z,19.6
2017-03-16T08:17:37.325Z,19.68
2017-03-16T08:18:17.985Z,19.68
2017-03-16T08:18:58.618Z,19.65
2017-03-16T08:19:39.302Z,19.53
2017-03-16T08:20:19.957Z,19.57
2017-03-16T08:21:00.583Z,19.69
2017-03-16T08:21:41.213Z,19.63
2017-03-16T08:22:21.839Z,19.61
2017-03-16T08:23:02.469Z,19.6
2017-03-16T08:23:43.107Z,19.61
2017-03-16T08:24:23.742Z,19.65
2017-03-16T08:25:04.373Z,19.66
2017-03-16T08:25:45.020Z,19.55
2017-03-16T08:26:25.657Z,19.69
2017-03-16T08:27:06.282Z,19.63
2017-03-16T08:27:46.988Z,19.68
2017-03-16T08:28:27.616Z,19.68
2017-03-16T08:29:08.244Z,19.6
2017-03-16T08:29:48.879Z,19.55
2017-03-16T08:30:29.507Z,19.72
2017-03-16T08:31:10.140Z,19.55
2017-03-16T08:31:50.781Z,19.63
2017-03-16T08:32:31.461Z,19.55
2017-03-16T08:33:12.045Z,19.6
2017-03-16T08:33:52.705Z,19.63
2017-03-16T08:34:33.334Z,19.58
2017-03-16T08:35:13.956Z,19.58
2017-03-16T08:35:54.684Z,19.63
2017-03-16T08:36:35.362Z,19.6
2017-03-16T08:37:16.008Z,19.63
2017-03-16T08:37:56.633Z,19.53
2017-03-16T08:38:37.271Z,19.65
2017-03-16T08:39:17.897Z,19.58
2017-03-16T08:39:58.544Z,19.6
2017-03-16T08:40:39.172Z,19.6
2017-03-16T08:41:19.810Z,19.48
2017-03-16T08:42:00.443Z,19.6
2017-03-16T08:42:41.064Z,19.61
2017-03-16T08:43:21.692Z,19.63
2017-03-16T08:44:02.331Z,19.61
2017-03-16T08:44:42.954Z,19.63
2017-03-16T08:45:23.703Z,19.63
2017-03-16T08:46:04.365Z,19.63
2017-03-16T08:46:45.054Z,19.57
2017-03-16T08:47:25.666Z,19.5
2017-03-16T08:48:06.306Z,19.61
2017-03-16T08:48:46.926Z,19.55
2017-03-16T08:49:27.589Z,19.53
2017-03-16T08:50:08.223Z,19.55
2017-03-16T08:50:48.868Z,19.48
2017-03-16T08:51:29.528Z,19.55
2017-03-16T08:52:10.243Z,19.63
2017-03-16T08:52:50.902Z,19.55
2017-03-16T08:53:31.535Z,19.66